Boyd, WI (54726)

9:38 PM CDT on July 06, 2015 (GMT -0500)
Clear Creek Estates/Sigel Township/Cadott, WI | | Change Station
CLOSE
Current Station
Personal Weather Station
Location: Cadott, WI
Elevation: 1007 ft
Nearby Weather Stations

Elev 1007 ft 44.91 °N, 91.14 °W | Updated 10 minutes ago

Overcast
Overcast
57.6 °F
Feels Like 57.6 °F
N
0.0
Wind Variable Wind from SW

Today
High -- | Low -- °F
--% Chance of Precip.
Yesterday
High -- | Low -- °F
Precip. -- in
5:24 AM 8:52 PM
Waning Gibbous, 70% visible
Pressure 29.95 in
Visibility 2.0 miles
Clouds Overcast 2900 ft
Dew Point 55 °F
Humidity 92%
Rainfall 1.28 in
Snow Depth Not available.
UV 0 out of 12
Pollen .60 out of 12
Air Quality Not available.
Flu Activity Not available.
SPECI KEAU 070228Z AUTO 00000KT 2SM BR OVC029 16/14 A2995 RMK AO2 SFC VIS 3 T01560139

More Conditions Fewer Conditions

Pressure 29.95 in
Visibility 2.0 miles
Clouds Overcast 2900 ft
Dew Point 55 °F
Humidity 92%
Rainfall 1.28 in
Snow Depth Not available.
UV 0 out of 12
Pollen .60 out of 12
Air Quality Not available.
Flu Activity Not available.
SPECI KEAU 070228Z AUTO 00000KT 2SM BR OVC029 16/14 A2995 RMK AO2 SFC VIS 3 T01560139

More Conditions Fewer Conditions

10-Day Weather Forecast

×

Almanac

Astronomy

Jul. 06, 2015 Rise Set
Actual Time
Civil Twilight
Nautical Twilight
Astronomical Twilight
Moon
Length of Visible Light
Length of Day
Tomorrow will be .
, % of the Moon is Illuminated

Today's Extremes

State Highs State Lows

Community

WunderPhotos

Upload Photos

1,835,692 photos uploaded!

WunderBlogs® & News

Nearby

Air Quality

  Air Quality AQ Index Pollutant
Not available.

Snow Depth

Station Depth Elevation

Earthquake Activity

City Distance Mag. Time & Date
Minimum magnitude displayed is 2.5.

Coastal Water Temperatures

Place Temperature

Stations

Nearby Weather Stations

Station Location Temp. Windchill Dew Point Humidity Wind Precip. Elev Updated Type